罗盘
风向 的 风向 160°
风: 5 kt, 2 beaufort

添加一条跑道以查看侧风和逆风信息。

添置 跑道
0 5.000 10.000 15.000 20.000
BKN 2.700 ft
BKN 13.000 ft
METAR LIPQ 301150Z AUTO 16005KT 9999 BKN027/// BKN130/// 20/16 Q1010

METAR Aviosuperficie Ultralight Friuli - IT-0173

Aviosuperficie Ultralight Friuli是Trivignano (UD),意大利中的小机场。 该领域的国际民航组织标志是IT-0173.

这份报告是针对2022年9月30日 13:50, 当地时间在Trieste–Friuli Venezia Giulia Airport进行的。

机场观察

风向为160°,速度为5 kt。

可见度为10 km 或者更多。

有碎云在2.700 ft的高度 和 碎云在13.000 ft的高度。 破损或更高的上限为2.700 ft。

温度和风寒是20 °C。 露点为16 °C,相对湿度为78%。 海平面上的气压为1010 hPa (QNH)。

白天

今天,太阳从07:03升起,在18:49降落。 这适用于Aviosuperficie Ultralight Friuli,世界夏令时可能有所不同。 当地时间与世界标准时间之间的时差为+2 小时。 夏令时目前正在进行中。

公司介绍

我们没有关于这个机场的公司信息。

体会

到Vliegles.nl去找飞行课程,跳伞和其他飞行体验。 浏览页面,了解Aviosuperficie Ultralight Friuli附近所有可用的活动。 你也可以使用搜索功能来寻找你所在地附近的特定飞行课程、跳伞或其他飞行体验。

乌云

2.700 ft BKN 碎云
13.000 ft BKN 碎云

温度 & 天气

温度 20 °C
露点 16 °C
相对湿度 78%
Kp-index 2 (0-9)

白天

日出
07:03
中午
12:56
日落
18:49 (4h 42m)

小工具

你想在你的网站上有一个关于Aviosuperficie Ultralight Friuli的当前航空天气(METAR)的小部件吗?

</> 显示HTML代码

我们和第三方通过cookies跟踪您在我们网站上的上网行为。如果您继续,我们认为您同意我们的cookie政策。 了解更多